Wetterstation Vordersexau
Wetterdaten: Januar 2017
Datum Temp. A. Feuchte A. Luftdruck Regen Wind Richtung Taupunkt Windchill Windben
01.01.2017 -1,3 C 83 % 1020,3 hPa 0,5 l/m 0,0 km/h NW -3,9 C -1,3 C 0,0 km/h
02.01.2017 -0,4 C 83 % 1020,4 hPa 0,0 l/m 0,0 km/h W-NW -2,9 C -0,4 C 0,0 km/h
03.01.2017 -2,4 C 85 % 1025,0 hPa 0,0 l/m 0,0 km/h W-NW -4,6 C -2,4 C 0,0 km/h
04.01.2017 -0,6 C 86 % 1018,6 hPa 0,0 l/m 7,2 km/h SO -2,6 C -3,5 C 4,0 km/h
05.01.2017 -1,7 C 82 % 1024,3 hPa 2,1 l/m 0,0 km/h N -4,5 C -1,7 C 0,0 km/h
06.01.2017 -7,3 C 78 % 1034,5 hPa 0,0 l/m 0,0 km/h N -10,6 C -7,3 C 0,0 km/h
07.01.2017 -7,1 C 79 % 1031,5 hPa 0,0 l/m 0,0 km/h O-SO -10,2 C -7,1 C 0,0 km/h
08.01.2017 -1,4 C 85 % 1028,3 hPa 0,5 l/m 0,0 km/h O-NO -3,5 C -1,4 C 0,0 km/h
09.01.2017 -0,2 C 85 % 1024,2 hPa 0,0 l/m 0,0 km/h O-NO -2,4 C -0,2 C 0,0 km/h
10.01.2017 0,2 C 86 % 1009,6 hPa 0,0 l/m 0,0 km/h O-SO -1,9 C 0,2 C 0,0 km/h
11.01.2017 2,7 C 83 % 1012,1 hPa 1,6 l/m 11,2 km/h O-SO 0,1 C -1,7 C 6,2 km/h
12.01.2017 5,9 C 83 % 1009,2 hPa 2,1 l/m 10,6 km/h SW 3,3 C 2,2 C 5,9 km/h
13.01.2017 2,7 C 80 % 1003,0 hPa 0,5 l/m 12,3 km/h W-SW -0,4 C -2,1 C 6,8 km/h
14.01.2017 0,7 C 86 % 1011,9 hPa 3,6 l/m 0,5 km/h W -1,4 C 0,7 C 0,3 km/h
15.01.2017 -0,9 C 86 % 1018,4 hPa 0,5 l/m 0,0 km/h W -3,0 C -0,9 C 0,0 km/h
16.01.2017 -1,7 C 80 % 1020,8 hPa 1,6 l/m 1,2 km/h W -4,7 C -2,3 C 0,7 km/h
17.01.2017 -3,1 C 75 % 1026,5 hPa 0,5 l/m 0,7 km/h N-NO -7,1 C -3,2 C 0,4 km/h
18.01.2017 -2,5 C 67 % 1028,0 hPa 0,5 l/m 0,5 km/h N-NO -8,1 C -2,5 C 0,3 km/h
19.01.2017 -6,8 C 76 % 1029,0 hPa 0,0 l/m 0,0 km/h SO -10,5 C -6,8 C 0,0 km/h
20.01.2017 -6,6 C 77 % 1028,3 hPa 0,0 l/m 0,0 km/h W-NW -10,2 C -6,6 C 0,0 km/h
21.01.2017 -5,7 C 76 % 1025,8 hPa 0,0 l/m 0,0 km/h W-NW -9,6 C -5,7 C 0,0 km/h
22.01.2017 -7,6 C 85 % 1022,7 hPa 0,0 l/m 0,1 km/h W-NW -9,6 C -7,6 C 0,1 km/h
23.01.2017 -6,8 C 87 % 1022,4 hPa 0,0 l/m 0,7 km/h O-SO -8,7 C -6,9 C 0,4 km/h
24.01.2017 -5,6 C 84 % 1024,0 hPa 0,0 l/m 1,5 km/h O-SO -7,9 C -6,2 C 0,8 km/h
25.01.2017 -7,0 C 82 % 1024,5 hPa 0,0 l/m 0,0 km/h O-SO -9,6 C -7,0 C 0,0 km/h
26.01.2017 -6,5 C 76 % 1021,4 hPa 0,0 l/m 0,0 km/h O-SO -10,3 C -6,5 C 0,0 km/h
27.01.2017 -4,6 C 78 % 1017,5 hPa 0,0 l/m 0,0 km/h N-NW -8,0 C -4,6 C 0,0 km/h
28.01.2017 -0,6 C 77 % 1016,9 hPa 0,0 l/m 0,0 km/h N-NW -4,5 C -0,6 C 0,0 km/h
29.01.2017 1,5 C 83 % 1019,4 hPa 0,0 l/m 0,2 km/h O-SO -1,2 C 1,5 C 0,1 km/h
30.01.2017 4,2 C 85 % 1014,2 hPa 3,1 l/m 6,5 km/h O-SO 1,9 C 2,4 C 3,6 km/h
31.01.2017 6,7 C 81 % 1012,6 hPa 8,3 l/m 5,3 km/h W 3,7 C 5,0 C 3,0 km/h
Min-Datum 07.01.17 18.01.17 12.01.17 13 Tage 01.01.17 - 07.01.17 24.01.17 01.01.17
Min-Zeit 05:10 15:10 23:10 - 00:10 - 05:10 02:10 00:10
Minimum -13,5 C 46 % 994,1 hPa - 0,0 km/h - -15,6 C -15,8 C 0,0 km/h
Max-Datum 29.01.17 01.01.17 06.01.17 31.01.17 13.01.17 - 29.01.17 29.01.17 13.01.17
Max-Zeit 15:10 07:10 10:10 07:10 01:10 - 15:10 15:10 01:10
Maximum 13,4 C 87 % 1036,1 hPa 8,3 l/m 44,7 km/h
W-SW
- 6,0 C 13,4 C 24,8 km/h
W-SW
Durchschnitt -2,1 C 81 % 1020,8 hPa #25,4 l/m 1,9 km/h O-SO -4,9 C -2,7 C 1,1 km/h

Durchschnitt Minimum Temp.-6,3 C
Durchschnitt Maximum Temp.4,2 C
www.sexauwetter.de